createdAt,value
2022-12-23T00:05:40.338Z,165.95
2022-12-23T00:15:42.089Z,142.93
2022-12-23T00:25:45.029Z,128.27
2022-12-23T00:35:47.445Z,153.33
2022-12-23T00:45:50.362Z,130.50
2022-12-23T00:55:52.783Z,117.78
2022-12-23T01:05:58.717Z,125.22
2022-12-23T01:16:02.283Z,124.53
2022-12-23T01:26:07.802Z,135.75
2022-12-23T01:36:11.115Z,128.05
2022-12-23T01:46:14.635Z,145.30
2022-12-23T01:56:24.181Z,150.48
2022-12-23T02:06:52.453Z,154.95
2022-12-23T02:17:04.586Z,157.32
2022-12-23T02:27:16.569Z,176.60
2022-12-23T02:37:45.929Z,188.10
2022-12-23T02:48:24.482Z,192.30
2022-12-23T02:58:32.455Z,186.27
2022-12-23T03:08:43.361Z,210.13
2022-12-23T03:19:04.170Z,209.23
2022-12-23T03:29:16.417Z,308.45
2022-12-23T03:39:29.079Z,369.60
2022-12-23T03:49:55.220Z,363.13
2022-12-23T03:59:58.080Z,412.92
2022-12-23T04:10:01.180Z,533.67
2022-12-23T04:20:04.592Z,457.90
2022-12-23T04:30:08.839Z,430.60
2022-12-23T04:40:10.611Z,381.25
2022-12-23T04:50:16.717Z,421.80
2022-12-23T05:00:18.744Z,434.20
2022-12-23T05:10:23.533Z,422.77
2022-12-23T05:20:25.179Z,286.10
2022-12-23T05:30:26.928Z,307.98
2022-12-23T05:40:32.406Z,400.90
2022-12-23T05:50:35.267Z,392.42
2022-12-23T06:00:37.187Z,408.08
2022-12-23T06:10:39.143Z,245.50
2022-12-23T06:20:41.066Z,311.65
2022-12-23T06:30:43.940Z,256.30
2022-12-23T06:40:47.121Z,299.23
2022-12-23T06:50:49.853Z,203.53
2022-12-23T07:00:51.962Z,202.30
2022-12-23T07:11:02.283Z,269.90
2022-12-23T07:21:04.652Z,266.27
2022-12-23T07:31:08.479Z,287.95
2022-12-23T07:41:12.792Z,221.52
2022-12-23T07:51:20.519Z,162.20
2022-12-23T08:01:23.708Z,150.52
2022-12-23T08:11:25.423Z,143.20
2022-12-23T08:21:27.106Z,147.32
2022-12-23T08:31:32.301Z,150.73
2022-12-23T08:41:39.407Z,168.32
2022-12-23T08:51:47.532Z,184.75
2022-12-23T09:01:50.659Z,210.70
2022-12-23T09:11:52.424Z,179.35
2022-12-23T09:21:55.360Z,162.38
2022-12-23T09:31:57.282Z,162.55
2022-12-23T09:42:36.709Z,146.32
2022-12-23T09:53:14.129Z,141.18
2022-12-23T10:03:34.506Z,148.45
2022-12-23T10:14:12.331Z,133.23
2022-12-23T10:24:20.347Z,179.48
2022-12-23T10:34:55.015Z,193.48
2022-12-23T10:55:31.310Z,176.27
2022-12-23T11:05:36.197Z,185.40
2022-12-23T11:15:40.527Z,178.53
2022-12-23T11:25:43.891Z,187.65
2022-12-23T11:35:45.762Z,183.15
2022-12-23T11:45:47.788Z,192.70
2022-12-23T11:56:11.490Z,188.85
2022-12-23T12:06:17.597Z,166.10
2022-12-23T12:16:31.186Z,178.95
2022-12-23T12:26:37.403Z,207.27
2022-12-23T12:37:30.223Z,209.00
2022-12-23T12:48:00.150Z,200.98
2022-12-23T12:58:16.386Z,200.57
2022-12-23T13:08:35.554Z,191.27
2022-12-23T13:19:03.982Z,188.07
2022-12-23T13:29:46.717Z,188.80
2022-12-23T13:40:25.981Z,206.65
2022-12-23T13:50:59.572Z,192.57
2022-12-23T14:01:10.587Z,189.77
2022-12-23T14:11:23.481Z,172.07
2022-12-23T14:21:50.059Z,193.35
2022-12-23T14:31:58.309Z,168.45
2022-12-23T14:42:35.810Z,158.68
2022-12-23T14:53:23.188Z,159.82
2022-12-23T15:03:48.339Z,151.23
2022-12-23T15:13:52.389Z,152.70
2022-12-23T15:24:03.900Z,142.48
2022-12-23T15:34:17.145Z,145.07
2022-12-23T15:44:26.439Z,144.00
2022-12-23T15:54:45.906Z,131.68
2022-12-23T16:05:10.206Z,135.30
2022-12-23T16:25:36.367Z,145.38
2022-12-23T16:35:42.805Z,144.23
2022-12-23T16:45:57.971Z,137.70
2022-12-23T16:56:12.556Z,125.93
2022-12-23T17:06:26.477Z,118.68
2022-12-23T17:16:34.429Z,101.80
2022-12-23T17:26:37.868Z,108.30
2022-12-23T17:36:47.564Z,100.80
2022-12-23T17:46:52.519Z,108.65
2022-12-23T17:56:57.890Z,88.50
2022-12-23T18:06:59.897Z,106.07
2022-12-23T18:17:17.435Z,108.93
2022-12-23T18:27:26.296Z,161.95
2022-12-23T18:37:29.050Z,267.60
2022-12-23T18:47:31.809Z,196.77
2022-12-23T18:57:34.162Z,234.00
2022-12-23T19:07:35.941Z,243.38
2022-12-23T19:17:38.218Z,275.38
2022-12-23T19:27:41.543Z,168.93
2022-12-23T19:37:48.369Z,235.37
2022-12-23T19:47:53.382Z,194.98
2022-12-23T19:58:02.268Z,297.67
2022-12-23T20:08:05.672Z,208.40
2022-12-23T20:18:08.477Z,205.23
2022-12-23T20:28:10.363Z,116.88
2022-12-23T20:38:14.392Z,111.88
2022-12-23T20:48:18.430Z,107.30
2022-12-23T20:58:43.849Z,93.22
2022-12-23T21:08:46.930Z,83.47
2022-12-23T21:18:53.375Z,94.90
2022-12-23T21:29:00.796Z,81.07
2022-12-23T21:39:05.166Z,90.68
2022-12-23T21:49:06.956Z,96.60
2022-12-23T21:59:14.595Z,95.68
2022-12-23T22:09:19.157Z,89.63
2022-12-23T22:19:21.001Z,88.00
2022-12-23T22:29:26.906Z,86.20
2022-12-23T22:42:12.471Z,80.63
2022-12-23T22:52:15.366Z,77.53
2022-12-23T23:02:17.213Z,80.00
2022-12-23T23:12:22.562Z,78.43
2022-12-23T23:22:25.509Z,82.32
2022-12-23T23:32:28.250Z,70.10
2022-12-23T23:42:30.128Z,68.75
2022-12-23T23:52:31.984Z,72.60
